createdAt,value
2019-03-11T00:02:14.919Z,5.27
2019-03-11T00:04:45.897Z,5.03
2019-03-11T00:07:16.249Z,6.03
2019-03-11T00:09:48.379Z,5.57
2019-03-11T00:12:18.797Z,6.67
2019-03-11T00:14:49.589Z,3.80
2019-03-11T00:17:20.606Z,6.00
2019-03-11T00:19:51.589Z,6.13
2019-03-11T00:22:22.597Z,5.27
2019-03-11T00:24:53.567Z,4.63
2019-03-11T00:27:24.554Z,4.87
2019-03-11T00:29:55.551Z,5.93
2019-03-11T00:32:26.498Z,7.87
2019-03-11T00:34:57.473Z,8.40
2019-03-11T00:37:28.353Z,4.37
2019-03-11T00:39:59.246Z,6.23
2019-03-11T00:42:30.205Z,5.73
2019-03-11T00:45:01.085Z,6.17
2019-03-11T00:47:33.130Z,8.80
2019-03-11T00:50:04.562Z,7.10
2019-03-11T00:52:35.551Z,9.23
2019-03-11T00:55:06.629Z,7.50
2019-03-11T00:57:37.649Z,7.90
2019-03-11T01:00:14.358Z,7.40
2019-03-11T01:02:45.778Z,9.33
2019-03-11T01:05:16.702Z,10.97
2019-03-11T01:07:47.580Z,6.80
2019-03-11T01:10:18.574Z,11.30
2019-03-11T01:12:49.558Z,8.10
2019-03-11T01:15:19.853Z,8.97
2019-03-11T01:17:50.622Z,13.23
2019-03-11T01:20:21.711Z,10.13
2019-03-11T01:22:52.679Z,10.57
2019-03-11T01:25:23.634Z,8.70
2019-03-11T01:27:54.510Z,9.33
2019-03-11T01:30:25.832Z,8.60
2019-03-11T01:32:56.843Z,12.43
2019-03-11T01:35:27.793Z,14.37
2019-03-11T01:37:58.800Z,11.30
2019-03-11T01:40:29.814Z,10.87
2019-03-11T01:43:00.788Z,11.47
2019-03-11T01:45:31.768Z,10.43
2019-03-11T01:48:02.742Z,9.83
2019-03-11T01:50:35.786Z,10.47
2019-03-11T01:53:06.767Z,9.90
2019-03-11T01:55:37.751Z,14.03
2019-03-11T01:58:08.726Z,10.23
2019-03-11T02:00:39.702Z,10.47
2019-03-11T02:03:10.702Z,9.20
2019-03-11T02:05:41.591Z,16.80
2019-03-11T02:08:12.574Z,13.03
2019-03-11T02:10:43.538Z,6.47
2019-03-11T02:13:14.472Z,8.53
2019-03-11T02:15:45.698Z,5.43
2019-03-11T02:18:16.686Z,8.63
2019-03-11T02:20:47.282Z,10.87
2019-03-11T02:23:18.325Z,7.70
2019-03-11T02:25:51.507Z,12.67
2019-03-11T02:28:23.467Z,6.00
2019-03-11T02:30:54.428Z,6.40
2019-03-11T02:33:26.379Z,9.03
2019-03-11T02:35:59.023Z,11.63
2019-03-11T02:38:29.999Z,7.10
2019-03-11T02:41:01.620Z,6.60
2019-03-11T02:43:32.668Z,9.83
2019-03-11T02:46:03.684Z,5.20
2019-03-11T02:48:34.633Z,6.87
2019-03-11T02:51:05.630Z,9.10
2019-03-11T02:53:36.870Z,9.57
2019-03-11T02:56:08.841Z,5.20
2019-03-11T02:58:39.874Z,6.60
2019-03-11T03:01:35.480Z,5.87
2019-03-11T03:04:10.708Z,9.63
2019-03-11T03:06:41.714Z,6.77
2019-03-11T03:09:14.961Z,9.40
2019-03-11T03:11:46.024Z,8.70
2019-03-11T03:14:17.014Z,5.90
2019-03-11T03:16:48.049Z,8.10
2019-03-11T03:19:20.000Z,9.50
2019-03-11T03:21:51.034Z,9.00
2019-03-11T03:24:21.532Z,9.00
2019-03-11T03:26:52.312Z,8.67
2019-03-11T03:29:23.285Z,5.83
2019-03-11T03:31:54.301Z,10.57
2019-03-11T03:34:25.282Z,11.83
2019-03-11T03:36:56.262Z,15.77
2019-03-11T03:39:27.226Z,7.67
2019-03-11T03:41:58.217Z,10.73
2019-03-11T03:44:29.196Z,12.97
2019-03-11T03:47:00.164Z,8.27
2019-03-11T03:49:31.135Z,7.90
2019-03-11T03:52:02.143Z,6.70
2019-03-11T03:54:33.419Z,10.03
2019-03-11T03:57:04.382Z,8.17
2019-03-11T03:59:35.443Z,7.40
2019-03-11T04:02:06.414Z,7.80
2019-03-11T04:04:38.375Z,9.97
2019-03-11T04:07:09.344Z,7.40
2019-03-11T04:09:42.567Z,9.63
2019-03-11T04:12:13.555Z,8.33
2019-03-11T04:14:44.557Z,7.90
2019-03-11T04:17:15.551Z,8.60
2019-03-11T04:19:46.519Z,7.63
2019-03-11T04:22:20.074Z,7.47
2019-03-11T04:24:50.386Z,6.33
2019-03-11T04:27:21.084Z,7.07
2019-03-11T04:29:52.138Z,6.97
2019-03-11T04:32:22.471Z,5.77
2019-03-11T04:34:53.239Z,14.43
2019-03-11T04:37:24.230Z,9.43
2019-03-11T04:39:55.223Z,10.13
2019-03-11T04:42:26.206Z,11.20
2019-03-11T04:44:57.178Z,8.90
2019-03-11T04:47:28.113Z,7.87
2019-03-11T04:50:00.202Z,8.50
2019-03-11T04:52:31.546Z,8.97
2019-03-11T04:55:02.770Z,6.70
2019-03-11T04:57:41.211Z,10.07
2019-03-11T05:00:17.130Z,7.00
2019-03-11T05:02:48.138Z,9.93
2019-03-11T05:05:19.138Z,5.20
2019-03-11T05:07:50.146Z,10.37
2019-03-11T05:10:21.158Z,8.57
2019-03-11T05:12:51.448Z,8.20
2019-03-11T05:15:22.322Z,9.77
2019-03-11T05:17:53.356Z,13.17
2019-03-11T05:20:25.292Z,9.67
2019-03-11T05:22:56.262Z,12.97
2019-03-11T05:25:27.367Z,11.83
2019-03-11T05:27:58.474Z,10.07
2019-03-11T05:30:29.489Z,13.90
2019-03-11T05:33:00.503Z,10.10
2019-03-11T05:35:31.491Z,10.53
2019-03-11T05:38:02.815Z,10.23
2019-03-11T05:40:33.817Z,10.63
2019-03-11T05:43:04.779Z,8.53
2019-03-11T05:45:36.141Z,12.03
2019-03-11T05:48:07.119Z,8.90
2019-03-11T05:50:38.255Z,11.87
2019-03-11T05:53:09.221Z,7.93
2019-03-11T05:55:40.355Z,8.67
2019-03-11T05:58:10.975Z,10.07
2019-03-11T06:00:42.074Z,8.90
2019-03-11T06:03:13.344Z,14.13
2019-03-11T06:05:44.330Z,8.53
2019-03-11T06:08:21.242Z,6.43
2019-03-11T06:10:52.290Z,7.97
2019-03-11T06:13:23.263Z,9.33
2019-03-11T06:15:54.626Z,9.33
2019-03-11T06:18:50.332Z,4.63
2019-03-11T06:21:41.282Z,5.47
2019-03-11T06:24:12.233Z,9.43
2019-03-11T06:26:44.334Z,10.37
2019-03-11T06:29:15.322Z,10.67
2019-03-11T06:31:55.435Z,10.17
2019-03-11T06:34:22.635Z,7.77
2019-03-11T06:36:55.666Z,7.00
2019-03-11T06:39:26.614Z,10.50
2019-03-11T06:41:57.805Z,9.90
2019-03-11T06:44:28.781Z,8.67
2019-03-11T06:46:59.730Z,6.70
2019-03-11T06:49:34.122Z,10.20
2019-03-11T06:52:05.155Z,10.33
2019-03-11T06:54:36.203Z,6.97
2019-03-11T06:57:12.683Z,8.67
2019-03-11T06:59:47.468Z,9.47
2019-03-11T07:02:18.454Z,8.93
2019-03-11T07:04:49.886Z,6.53
2019-03-11T07:07:20.962Z,6.13
2019-03-11T07:09:53.409Z,11.20
2019-03-11T07:12:26.522Z,7.10
2019-03-11T07:14:57.459Z,6.73
2019-03-11T07:17:28.442Z,7.07
2019-03-11T07:19:59.498Z,7.33
2019-03-11T07:22:30.409Z,7.93
2019-03-11T07:25:01.645Z,8.20
2019-03-11T07:27:33.077Z,8.27
2019-03-11T07:30:04.190Z,6.37
2019-03-11T07:32:35.278Z,7.23
2019-03-11T07:35:09.057Z,4.47
2019-03-11T07:37:40.066Z,6.20
2019-03-11T07:40:11.802Z,5.87
2019-03-11T07:42:43.030Z,6.20
2019-03-11T07:45:14.258Z,5.00
2019-03-11T07:47:46.301Z,3.73
2019-03-11T07:50:17.302Z,4.90
2019-03-11T07:52:48.286Z,5.13
2019-03-11T07:55:19.302Z,4.27
2019-03-11T07:57:50.214Z,9.03
2019-03-11T08:00:21.209Z,7.20
2019-03-11T08:02:52.142Z,6.40
2019-03-11T08:05:23.234Z,5.63
2019-03-11T08:07:55.230Z,3.67
2019-03-11T08:10:25.606Z,6.87
2019-03-11T08:12:55.786Z,5.17
2019-03-11T08:15:26.583Z,3.27
2019-03-11T08:17:57.639Z,4.93
2019-03-11T08:20:28.693Z,5.13
2019-03-11T08:22:59.690Z,3.77
2019-03-11T08:25:30.727Z,3.70
2019-03-11T08:28:01.766Z,4.17
2019-03-11T08:30:32.722Z,3.90
2019-03-11T08:33:03.727Z,4.40
2019-03-11T08:35:34.806Z,5.17
2019-03-11T08:38:05.771Z,5.73
2019-03-11T08:40:36.770Z,4.50
2019-03-11T08:43:07.789Z,4.83
2019-03-11T08:45:38.875Z,7.60
2019-03-11T08:48:09.913Z,5.67
2019-03-11T08:50:41.031Z,8.33
2019-03-11T08:53:12.279Z,4.03
2019-03-11T08:55:43.323Z,3.80
2019-03-11T08:58:14.621Z,2.93
2019-03-11T09:00:45.574Z,3.47
2019-03-11T09:03:16.567Z,4.27
2019-03-11T09:05:48.651Z,4.93
2019-03-11T09:08:19.719Z,7.73
2019-03-11T09:10:50.730Z,4.57
2019-03-11T09:13:21.866Z,5.40
2019-03-11T09:15:53.122Z,7.67
2019-03-11T09:18:24.148Z,2.27
2019-03-11T09:20:55.170Z,3.00
2019-03-11T09:23:28.378Z,2.13
2019-03-11T09:25:59.395Z,2.53
2019-03-11T09:28:30.669Z,2.10
2019-03-11T09:31:02.884Z,2.40
2019-03-11T09:33:34.935Z,3.20
2019-03-11T09:36:05.918Z,2.83
2019-03-11T09:38:36.955Z,3.50
2019-03-11T09:41:08.536Z,3.90
2019-03-11T09:43:39.520Z,3.63
2019-03-11T09:46:10.559Z,3.47
2019-03-11T09:48:41.518Z,4.40
2019-03-11T09:51:12.512Z,3.63
2019-03-11T09:53:43.510Z,5.13
2019-03-11T09:56:14.505Z,3.67
2019-03-11T09:58:45.504Z,3.10
2019-03-11T10:01:17.146Z,8.73
2019-03-11T10:03:48.079Z,4.30
2019-03-11T10:06:19.058Z,4.80
2019-03-11T10:08:50.038Z,5.23
2019-03-11T10:11:21.066Z,5.67
2019-03-11T10:17:09.041Z,4.83
2019-03-11T10:19:38.423Z,6.47
2019-03-11T10:22:09.452Z,5.87
2019-03-11T10:24:40.530Z,8.27
2019-03-11T10:27:11.535Z,6.30
2019-03-11T10:29:42.699Z,7.70
2019-03-11T10:32:13.666Z,6.97
2019-03-11T10:34:44.683Z,7.77
2019-03-11T10:37:16.014Z,7.53
2019-03-11T10:39:48.130Z,7.47
2019-03-11T10:42:41.877Z,6.30
2019-03-11T10:45:26.626Z,7.17
2019-03-11T10:47:53.572Z,7.90
2019-03-11T10:50:24.634Z,9.47
2019-03-11T10:52:58.014Z,7.57
2019-03-11T10:55:29.226Z,7.43
2019-03-11T10:58:00.615Z,8.10
2019-03-11T11:00:32.482Z,9.47
2019-03-11T11:03:08.319Z,9.20
2019-03-11T11:05:47.560Z,10.90
2019-03-11T11:08:18.618Z,185.20
2019-03-11T11:10:49.600Z,156.73
2019-03-11T11:13:20.599Z,102.47
2019-03-11T11:15:56.175Z,94.37
2019-03-11T11:18:28.005Z,47.97
2019-03-11T11:20:58.998Z,27.33
2019-03-11T11:23:31.346Z,19.23
2019-03-11T11:26:02.382Z,11.87
2019-03-11T11:28:33.370Z,15.47
2019-03-11T11:31:04.925Z,16.67
2019-03-11T11:33:35.970Z,16.67
2019-03-11T11:36:11.362Z,11.93
2019-03-11T11:38:42.400Z,10.70
2019-03-11T11:41:13.526Z,8.60
2019-03-11T11:43:43.889Z,8.07
2019-03-11T11:46:15.736Z,7.90
2019-03-11T11:48:46.722Z,8.43
2019-03-11T11:51:17.602Z,9.77
2019-03-11T11:53:51.103Z,12.73
2019-03-11T11:56:22.140Z,5.50
2019-03-11T11:58:53.591Z,6.47
2019-03-11T12:01:24.904Z,5.77
2019-03-11T12:03:58.077Z,7.47
2019-03-11T12:06:28.500Z,8.13
2019-03-11T12:08:59.707Z,9.93
2019-03-11T12:11:30.814Z,5.67
2019-03-11T12:14:02.355Z,8.00
2019-03-11T12:16:34.206Z,9.87
2019-03-11T12:19:04.802Z,9.70
2019-03-11T12:21:35.671Z,7.70
2019-03-11T12:24:06.634Z,10.50
2019-03-11T12:26:37.585Z,8.83
2019-03-11T12:29:08.863Z,5.83
2019-03-11T12:31:39.886Z,4.63
2019-03-11T12:34:11.194Z,6.27
2019-03-11T12:36:42.146Z,2.43
2019-03-11T12:39:15.431Z,3.00
2019-03-11T12:41:46.718Z,4.57
2019-03-11T12:44:18.931Z,3.13
2019-03-11T12:46:50.002Z,3.87
2019-03-11T12:49:21.035Z,4.10
2019-03-11T12:51:52.095Z,2.83
2019-03-11T12:54:23.130Z,2.93
2019-03-11T12:56:54.117Z,4.87
2019-03-11T12:59:26.509Z,6.17
2019-03-11T13:01:57.785Z,4.23
2019-03-11T13:04:28.886Z,4.10
2019-03-11T13:06:59.908Z,4.70
2019-03-11T13:09:31.208Z,6.23
2019-03-11T13:12:02.186Z,8.10
2019-03-11T13:14:33.213Z,8.23
2019-03-11T13:17:04.158Z,5.23
2019-03-11T13:19:35.350Z,8.57
2019-03-11T13:22:06.411Z,6.27
2019-03-11T13:24:37.376Z,6.73
2019-03-11T13:27:08.358Z,5.40
2019-03-11T13:29:39.331Z,5.60
2019-03-11T13:32:10.308Z,8.43
2019-03-11T13:34:41.305Z,6.03
2019-03-11T13:37:14.420Z,6.00
2019-03-11T13:39:48.019Z,6.97
2019-03-11T13:42:19.030Z,6.53
2019-03-11T13:44:50.107Z,4.00
2019-03-11T13:47:21.170Z,3.93
2019-03-11T13:49:52.110Z,5.97
2019-03-11T13:52:22.990Z,5.43
2019-03-11T13:54:54.243Z,8.00
2019-03-11T13:57:25.202Z,3.93
2019-03-11T14:00:00.511Z,5.00
2019-03-11T14:02:31.530Z,4.00
2019-03-11T14:05:02.514Z,5.83
2019-03-11T14:07:34.144Z,4.60
2019-03-11T14:10:05.238Z,2.70
2019-03-11T14:12:36.362Z,2.67
2019-03-11T14:15:07.546Z,3.10
2019-03-11T14:17:38.507Z,2.53
2019-03-11T14:20:10.586Z,2.87
2019-03-11T14:22:41.606Z,5.13
2019-03-11T14:25:13.774Z,2.23
2019-03-11T14:27:44.650Z,4.97
2019-03-11T14:30:16.661Z,5.23
2019-03-11T14:32:48.973Z,3.50
2019-03-11T14:35:20.336Z,2.87
2019-03-11T14:37:51.296Z,4.93
2019-03-11T14:40:22.416Z,2.97
2019-03-11T14:42:53.474Z,2.97
2019-03-11T14:45:24.648Z,4.67
2019-03-11T14:47:55.636Z,5.87
2019-03-11T14:50:26.614Z,3.20
2019-03-11T14:52:57.637Z,3.73
2019-03-11T14:55:28.642Z,5.57
2019-03-11T14:58:01.138Z,4.40
2019-03-11T15:00:33.286Z,2.17
2019-03-11T15:03:04.342Z,2.00
2019-03-11T15:05:35.274Z,2.93
2019-03-11T15:08:06.263Z,3.80
2019-03-11T15:10:37.587Z,5.23
2019-03-11T15:13:08.537Z,3.37
2019-03-11T15:15:40.514Z,2.70
2019-03-11T15:18:12.519Z,1.60
2019-03-11T15:20:43.691Z,3.53
2019-03-11T15:23:21.139Z,3.17
2019-03-11T15:25:54.059Z,3.87
2019-03-11T15:28:28.675Z,3.57
2019-03-11T15:31:09.887Z,4.20
2019-03-11T15:36:33.053Z,5.23
2019-03-11T15:38:57.943Z,7.20
2019-03-11T15:41:28.440Z,4.67
2019-03-11T15:43:59.259Z,5.00
2019-03-11T15:46:38.839Z,3.10
2019-03-11T15:49:02.322Z,4.70
2019-03-11T15:51:36.823Z,4.27
2019-03-11T15:54:06.250Z,5.80
2019-03-11T15:56:38.275Z,9.33
2019-03-11T15:59:10.231Z,18.80
2019-03-11T16:01:41.367Z,10.27
2019-03-11T16:04:12.435Z,6.83
2019-03-11T16:06:43.526Z,10.57
2019-03-11T16:09:19.672Z,6.83
2019-03-11T16:11:49.112Z,6.67
2019-03-11T16:14:22.698Z,6.60
2019-03-11T16:16:53.774Z,6.30
2019-03-11T16:19:25.015Z,8.03
2019-03-11T16:21:58.082Z,7.80
2019-03-11T16:24:29.699Z,6.53
2019-03-11T16:27:00.743Z,8.03
2019-03-11T16:29:31.840Z,9.93
2019-03-11T16:32:02.207Z,11.70
2019-03-11T16:34:33.572Z,9.83
2019-03-11T16:37:06.182Z,6.10
2019-03-11T16:39:37.570Z,4.43
2019-03-11T16:42:09.372Z,5.83
2019-03-11T16:44:42.620Z,6.43
2019-03-11T16:47:13.715Z,8.10
2019-03-11T16:49:45.146Z,11.47
2019-03-11T16:52:18.348Z,8.13
2019-03-11T16:54:49.603Z,6.37
2019-03-11T16:57:23.747Z,6.43
2019-03-11T17:00:01.501Z,5.00
2019-03-11T17:02:47.978Z,22.50
2019-03-11T17:05:28.393Z,13.73
2019-03-11T17:08:00.674Z,14.53
2019-03-11T17:13:59.980Z,12.17
2019-03-11T17:16:46.257Z,10.40
2019-03-11T17:19:19.102Z,11.60
2019-03-11T17:22:08.522Z,8.83
2019-03-11T17:25:21.575Z,8.00
2019-03-11T17:31:26.436Z,10.33
2019-03-11T17:34:00.362Z,15.00
2019-03-11T17:36:33.043Z,10.93
2019-03-11T17:39:12.783Z,14.93
2019-03-11T17:41:43.373Z,12.90
2019-03-11T17:44:56.051Z,12.07
2019-03-11T18:04:43.172Z,14.53
2019-03-11T18:08:03.497Z,18.47
2019-03-11T18:38:29.041Z,15.33
2019-03-11T18:41:35.387Z,13.03
2019-03-11T18:48:29.830Z,14.13
2019-03-11T19:19:47.516Z,24.50
2019-03-11T19:23:05.375Z,21.67
2019-03-11T19:26:23.774Z,26.63
2019-03-11T19:39:12.216Z,16.47
2019-03-11T19:41:42.768Z,16.07
2019-03-11T19:44:13.699Z,16.67
2019-03-11T19:46:44.824Z,16.67
2019-03-11T19:49:15.774Z,17.80
2019-03-11T19:51:47.844Z,16.83
2019-03-11T19:54:18.880Z,16.50
2019-03-11T19:56:49.955Z,18.23
2019-03-11T19:59:21.097Z,17.00
2019-03-11T20:01:52.415Z,15.27
2019-03-11T20:04:23.478Z,17.63
2019-03-11T20:06:54.468Z,15.97
2019-03-11T20:09:26.565Z,16.40
2019-03-11T20:11:57.785Z,17.33
2019-03-11T20:14:28.843Z,16.67
2019-03-11T20:16:59.894Z,15.13
2019-03-11T20:19:30.868Z,15.33
2019-03-11T20:22:02.220Z,19.20
2019-03-11T20:24:34.299Z,17.70
2019-03-11T20:27:05.775Z,18.70
2019-03-11T20:29:36.880Z,15.97
2019-03-11T20:32:07.941Z,15.97
2019-03-11T20:34:39.162Z,14.20
2019-03-11T20:37:10.518Z,14.37
2019-03-11T20:39:41.552Z,16.13
2019-03-11T20:42:12.663Z,12.77
2019-03-11T20:44:44.218Z,18.30
2019-03-11T20:47:15.744Z,14.63
2019-03-11T20:49:47.006Z,15.90
2019-03-11T20:52:20.148Z,14.83
2019-03-11T20:54:51.491Z,14.93
2019-03-11T20:57:22.427Z,17.97
2019-03-11T20:59:53.449Z,18.43
2019-03-11T21:02:24.518Z,18.47
2019-03-11T21:04:55.536Z,16.27
2019-03-11T21:07:26.501Z,14.87
2019-03-11T21:09:57.648Z,20.13
2019-03-11T21:12:28.620Z,17.40
2019-03-11T21:14:59.598Z,19.83
2019-03-11T21:17:31.221Z,22.00
2019-03-11T21:20:02.010Z,18.57
2019-03-11T21:22:34.483Z,21.03
2019-03-11T21:25:11.656Z,19.60
2019-03-11T21:27:44.256Z,20.57
2019-03-11T21:30:17.393Z,19.90
2019-03-11T21:32:50.191Z,18.80
2019-03-11T21:35:21.381Z,20.00
2019-03-11T21:37:52.497Z,15.30
2019-03-11T21:40:24.200Z,21.80
2019-03-11T21:42:55.472Z,17.70
2019-03-11T21:45:34.037Z,19.73
2019-03-11T21:47:59.585Z,17.67
2019-03-11T21:50:30.550Z,18.40
2019-03-11T21:53:01.552Z,21.10
2019-03-11T21:55:32.712Z,19.13
2019-03-11T21:58:12.489Z,22.53
2019-03-11T22:00:35.608Z,23.20
2019-03-11T22:03:06.782Z,18.13
2019-03-11T22:05:37.814Z,19.13
2019-03-11T22:08:08.918Z,19.97
2019-03-11T22:10:40.042Z,15.90
2019-03-11T22:13:11.271Z,17.37
2019-03-11T22:15:42.278Z,18.53
2019-03-11T22:18:13.238Z,16.07
2019-03-11T22:20:44.134Z,17.83
2019-03-11T22:23:15.093Z,17.87
2019-03-11T22:25:46.512Z,19.60
2019-03-11T22:28:17.486Z,20.87
2019-03-11T22:30:48.454Z,21.17
2019-03-11T22:33:19.686Z,19.47
2019-03-11T22:35:50.786Z,19.67
2019-03-11T22:38:21.762Z,15.20
2019-03-11T22:40:52.894Z,17.10
2019-03-11T22:43:23.342Z,16.00
2019-03-11T22:45:54.369Z,17.17
2019-03-11T22:48:25.342Z,18.07
2019-03-11T22:50:56.310Z,18.43
2019-03-11T22:53:27.282Z,16.57
2019-03-11T22:55:58.373Z,17.10
2019-03-11T22:58:29.287Z,17.20
2019-03-11T23:01:01.766Z,18.50
2019-03-11T23:03:34.525Z,16.37
2019-03-11T23:06:05.594Z,17.93
2019-03-11T23:08:36.638Z,16.87
2019-03-11T23:11:07.912Z,19.30
2019-03-11T23:13:38.878Z,14.60
2019-03-11T23:16:10.130Z,18.80
2019-03-11T23:18:41.102Z,16.87
2019-03-11T23:21:12.086Z,19.87
2019-03-11T23:23:43.048Z,12.73
2019-03-11T23:26:14.106Z,15.87
2019-03-11T23:28:45.138Z,19.73
2019-03-11T23:31:16.198Z,14.73
2019-03-11T23:33:47.190Z,15.13
2019-03-11T23:36:18.174Z,17.10
2019-03-11T23:38:49.126Z,17.57
2019-03-11T23:41:20.138Z,16.17
2019-03-11T23:43:51.090Z,16.97
2019-03-11T23:46:22.139Z,17.07
2019-03-11T23:48:53.081Z,15.27
2019-03-11T23:51:24.617Z,21.83
2019-03-11T23:53:55.586Z,17.93
2019-03-11T23:56:26.601Z,17.33
2019-03-11T23:58:57.563Z,16.00
